createdAt,value
2018-07-08T00:00:20.283Z,52.80
2018-07-08T00:02:50.291Z,53.30
2018-07-08T00:05:20.475Z,53.60
2018-07-08T00:07:51.399Z,53.50
2018-07-08T00:10:22.289Z,53.10
2018-07-08T00:12:53.217Z,54.10
2018-07-08T00:15:24.093Z,54.40
2018-07-08T00:17:54.237Z,54.60
2018-07-08T00:20:24.513Z,54.30
2018-07-08T00:22:55.226Z,54.40
2018-07-08T00:25:25.533Z,54.70
2018-07-08T00:27:55.753Z,54.90
2018-07-08T00:30:25.972Z,55.10
2018-07-08T00:32:56.071Z,55.40
2018-07-08T00:35:26.794Z,55.50
2018-07-08T00:37:57.017Z,55.70
2018-07-08T00:40:27.366Z,55.60
2018-07-08T00:42:57.608Z,55.60
2018-07-08T00:45:27.909Z,55.70
2018-07-08T00:47:58.316Z,55.90
2018-07-08T00:50:28.449Z,56.10
2018-07-08T00:52:58.600Z,56.00
2018-07-08T00:55:28.740Z,56.10
2018-07-08T00:57:58.831Z,56.30
2018-07-08T01:00:33.000Z,56.60
2018-07-08T01:03:04.403Z,56.70
2018-07-08T01:05:34.584Z,56.80
2018-07-08T01:08:05.117Z,57.00
2018-07-08T01:10:35.617Z,57.20
2018-07-08T01:13:06.281Z,57.10
2018-07-08T01:15:36.468Z,57.60
2018-07-08T01:18:06.835Z,57.20
2018-07-08T01:20:37.590Z,57.30
2018-07-08T01:23:07.761Z,57.60
2018-07-08T01:25:54.918Z,57.70
2018-07-08T01:28:25.147Z,57.60
2018-07-08T01:30:55.267Z,57.30
2018-07-08T01:33:25.964Z,57.40
2018-07-08T01:35:56.214Z,57.40
2018-07-08T01:38:26.510Z,57.40
2018-07-08T01:40:57.060Z,57.50
2018-07-08T01:43:28.116Z,57.50
2018-07-08T01:45:59.249Z,57.40
2018-07-08T01:48:29.300Z,57.60
2018-07-08T01:50:59.394Z,57.70
2018-07-08T01:53:29.614Z,57.90
2018-07-08T01:55:59.757Z,57.80
2018-07-08T01:58:29.950Z,57.80
2018-07-08T02:01:00.792Z,57.90
2018-07-08T02:03:30.839Z,58.00
2018-07-08T02:06:00.995Z,58.10
2018-07-08T02:08:31.695Z,58.20
2018-07-08T02:11:01.877Z,58.50
2018-07-08T02:13:32.028Z,58.80
2018-07-08T02:16:02.866Z,59.00
2018-07-08T02:18:33.014Z,59.10
2018-07-08T02:23:33.093Z,59.30
2018-07-08T02:26:03.890Z,59.40
2018-07-08T02:28:34.115Z,59.40
2018-07-08T02:31:04.363Z,59.70
2018-07-08T02:33:34.466Z,59.50
2018-07-08T02:36:04.694Z,59.50
2018-07-08T02:38:34.932Z,59.40
2018-07-08T02:41:05.042Z,59.50
2018-07-08T02:43:35.245Z,59.50
2018-07-08T02:46:05.458Z,59.50
2018-07-08T02:48:35.656Z,59.50
2018-07-08T02:51:05.760Z,59.90
2018-07-08T02:53:35.868Z,60.30
2018-07-08T02:56:06.538Z,60.70
2018-07-08T02:58:37.585Z,61.10
2018-07-08T03:01:07.784Z,61.50
2018-07-08T03:03:37.921Z,61.80
2018-07-08T03:06:08.134Z,62.00
2018-07-08T03:08:38.324Z,62.40
2018-07-08T03:11:08.512Z,62.70
2018-07-08T03:13:38.683Z,62.80
2018-07-08T03:16:09.068Z,63.10
2018-07-08T03:18:39.108Z,63.40
2018-07-08T03:21:09.331Z,63.50
2018-07-08T03:23:42.398Z,63.70
2018-07-08T03:26:12.584Z,63.80
2018-07-08T03:28:43.305Z,63.80
2018-07-08T03:31:13.413Z,63.80
2018-07-08T03:33:44.002Z,63.90
2018-07-08T03:36:14.268Z,63.90
2018-07-08T03:38:45.575Z,63.70
2018-07-08T03:41:15.637Z,63.50
2018-07-08T03:43:45.829Z,63.40
2018-07-08T03:46:15.917Z,63.70
2018-07-08T03:48:46.055Z,64.50
2018-07-08T03:51:16.317Z,63.90
2018-07-08T03:53:47.267Z,64.10
2018-07-08T03:56:17.481Z,64.10
2018-07-08T03:58:47.621Z,64.20
2018-07-08T04:01:17.845Z,64.10
2018-07-08T04:03:48.009Z,64.20
2018-07-08T04:06:18.067Z,64.30
2018-07-08T04:08:48.189Z,64.20
2018-07-08T04:11:18.359Z,64.10
2018-07-08T04:13:49.356Z,64.10
2018-07-08T04:16:19.477Z,64.40
2018-07-08T04:18:49.593Z,64.40
2018-07-08T04:21:19.764Z,64.40
2018-07-08T04:23:49.814Z,64.30
2018-07-08T04:26:19.947Z,64.20
2018-07-08T04:28:50.527Z,64.00
2018-07-08T04:31:20.673Z,64.10
2018-07-08T04:33:50.764Z,63.70
2018-07-08T04:36:20.833Z,63.20
2018-07-08T04:38:50.930Z,62.60
2018-07-08T04:41:21.106Z,62.50
2018-07-08T04:43:51.451Z,62.90
2018-07-08T04:46:21.666Z,61.90
2018-07-08T04:48:51.722Z,61.90
2018-07-08T04:51:21.824Z,61.90
2018-07-08T04:53:51.976Z,61.80
2018-07-08T04:56:22.180Z,62.10
2018-07-08T04:58:52.301Z,61.50
2018-07-08T05:01:22.448Z,61.50
2018-07-08T05:03:52.451Z,61.80
2018-07-08T05:06:22.562Z,62.20
2018-07-08T05:08:52.547Z,62.20
2018-07-08T05:11:22.701Z,62.40
2018-07-08T05:13:52.816Z,62.50
2018-07-08T05:16:23.056Z,62.80
2018-07-08T05:18:53.288Z,62.70
2018-07-08T05:21:23.437Z,62.70
2018-07-08T05:23:53.455Z,62.50
2018-07-08T05:26:23.544Z,61.50
2018-07-08T05:28:54.017Z,60.80
2018-07-08T05:31:24.212Z,60.00
2018-07-08T05:33:54.337Z,59.70
2018-07-08T05:36:24.469Z,59.40
2018-07-08T05:38:54.583Z,58.80
2018-07-08T05:41:28.370Z,57.80
2018-07-08T05:43:58.424Z,57.50
2018-07-08T05:46:28.578Z,57.00
2018-07-08T05:48:58.694Z,56.80
2018-07-08T05:51:29.026Z,56.80
2018-07-08T05:53:59.202Z,56.70
2018-07-08T05:56:29.442Z,57.50
2018-07-08T05:58:59.542Z,57.20
2018-07-08T06:01:29.656Z,57.20
2018-07-08T06:04:02.018Z,56.50
2018-07-08T06:06:32.085Z,56.50
2018-07-08T06:09:02.268Z,56.40
2018-07-08T06:11:32.372Z,55.10
2018-07-08T06:14:02.444Z,54.70
2018-07-08T06:16:32.555Z,54.10
2018-07-08T06:19:02.884Z,53.40
2018-07-08T06:21:33.052Z,53.50
2018-07-08T06:24:03.180Z,53.50
2018-07-08T06:26:33.432Z,54.20
2018-07-08T06:29:03.582Z,53.60
2018-07-08T06:31:33.848Z,53.80
2018-07-08T06:34:04.066Z,54.00
2018-07-08T06:36:34.172Z,54.10
2018-07-08T06:39:05.390Z,54.40
2018-07-08T06:41:35.617Z,54.40
2018-07-08T06:44:05.731Z,54.60
2018-07-08T06:46:35.985Z,54.50
2018-07-08T06:49:06.129Z,54.50
2018-07-08T06:51:37.212Z,54.50
2018-07-08T06:54:07.455Z,54.50
2018-07-08T06:56:37.689Z,54.60
2018-07-08T06:59:08.280Z,54.60
2018-07-08T07:01:38.349Z,54.70
2018-07-08T07:04:08.393Z,54.70
2018-07-08T07:06:38.852Z,54.80
2018-07-08T07:09:10.628Z,54.90
2018-07-08T07:11:41.696Z,54.40
2018-07-08T07:14:11.762Z,53.60
2018-07-08T07:16:41.954Z,53.40
2018-07-08T07:19:12.176Z,54.00
2018-07-08T07:21:42.338Z,53.70
2018-07-08T07:24:13.120Z,54.00
2018-07-08T07:26:43.291Z,53.60
2018-07-08T07:29:13.411Z,53.50
2018-07-08T07:31:43.633Z,53.20
2018-07-08T07:34:13.842Z,52.90
2018-07-08T07:36:43.941Z,52.90
2018-07-08T07:39:14.031Z,52.80
2018-07-08T07:41:44.224Z,52.70
2018-07-08T07:44:14.376Z,52.20
2018-07-08T07:46:44.612Z,51.80
2018-07-08T07:49:14.724Z,51.90
2018-07-08T07:51:44.972Z,51.90
2018-07-08T07:54:15.092Z,51.40
2018-07-08T07:56:45.253Z,51.00
2018-07-08T07:59:15.666Z,50.70
2018-07-08T08:01:45.893Z,50.60
2018-07-08T08:04:16.043Z,50.50
2018-07-08T08:06:46.236Z,50.10
2018-07-08T08:09:16.438Z,49.80
2018-07-08T08:11:46.528Z,50.10
2018-07-08T08:14:16.760Z,49.90
2018-07-08T08:16:46.892Z,49.80
2018-07-08T08:19:17.110Z,49.30
2018-07-08T08:21:47.320Z,48.00
2018-07-08T08:24:17.403Z,47.00
2018-07-08T08:26:47.630Z,46.80
2018-07-08T08:29:17.796Z,45.80
2018-07-08T08:31:47.914Z,45.30
2018-07-08T08:35:08.462Z,43.20
2018-07-08T08:37:40.659Z,43.40
2018-07-08T08:40:12.010Z,43.60
2018-07-08T08:42:43.675Z,44.10
2018-07-08T08:45:15.188Z,44.20
2018-07-08T08:47:45.456Z,42.40
2018-07-08T08:50:16.751Z,40.40
2018-07-08T08:55:37.149Z,37.40
2018-07-08T08:58:07.378Z,35.70
2018-07-08T09:00:37.441Z,32.30
2018-07-08T09:03:08.756Z,33.70
2018-07-08T09:05:39.483Z,33.40
2018-07-08T09:08:09.594Z,33.00
2018-07-08T09:10:39.824Z,34.90
2018-07-08T09:13:09.873Z,36.10
2018-07-08T09:15:40.070Z,37.00
2018-07-08T09:18:10.907Z,37.20
2018-07-08T09:20:41.251Z,37.30
2018-07-08T09:23:11.495Z,37.90
2018-07-08T09:25:42.539Z,39.00
2018-07-08T09:28:12.741Z,39.20
2018-07-08T09:30:42.982Z,39.90
2018-07-08T09:33:13.885Z,39.80
2018-07-08T09:35:44.205Z,39.90
2018-07-08T09:38:14.708Z,40.10
2018-07-08T09:40:45.326Z,40.20
2018-07-08T09:43:15.452Z,40.10
2018-07-08T09:45:45.551Z,40.20
2018-07-08T09:48:15.866Z,40.20
2018-07-08T09:50:45.921Z,39.60
2018-07-08T09:53:17.038Z,40.00
2018-07-08T09:55:47.062Z,39.90
2018-07-08T09:58:17.280Z,40.00
2018-07-08T10:00:47.711Z,40.00
2018-07-08T10:03:17.946Z,36.70
2018-07-08T10:05:48.157Z,35.40
2018-07-08T10:08:18.303Z,34.50
2018-07-08T10:10:48.464Z,34.60
2018-07-08T10:13:18.556Z,35.30
2018-07-08T10:15:48.977Z,35.40
2018-07-08T10:18:19.739Z,34.40
2018-07-08T10:20:49.883Z,34.40
2018-07-08T10:23:20.027Z,34.60
2018-07-08T10:25:50.119Z,34.50
2018-07-08T10:28:21.487Z,31.70
2018-07-08T10:30:51.944Z,31.00
2018-07-08T10:33:22.165Z,31.10
2018-07-08T10:36:01.664Z,31.00
2018-07-08T10:38:32.136Z,31.00
2018-07-08T10:41:02.381Z,31.10
2018-07-08T10:43:32.442Z,31.00
2018-07-08T10:46:03.273Z,30.60
2018-07-08T10:48:33.368Z,29.90
2018-07-08T10:51:03.450Z,29.60
2018-07-08T10:53:33.620Z,29.60
2018-07-08T10:56:04.386Z,29.50
2018-07-08T10:58:34.630Z,27.50
2018-07-08T11:01:04.804Z,27.00
2018-07-08T11:03:34.998Z,26.80
2018-07-08T11:06:05.354Z,26.40
2018-07-08T11:08:35.781Z,25.60
2018-07-08T11:11:06.344Z,24.70
2018-07-08T11:13:36.487Z,24.60
2018-07-08T11:16:06.567Z,23.50
2018-07-08T11:18:36.679Z,22.10
2018-07-08T11:21:07.028Z,22.10
2018-07-08T11:23:37.143Z,22.80
2018-07-08T11:26:07.377Z,22.30
2018-07-08T11:28:37.571Z,22.60
2018-07-08T11:31:08.019Z,23.30
2018-07-08T11:33:38.095Z,23.40
2018-07-08T11:36:08.279Z,23.80
2018-07-08T11:38:38.461Z,20.20
2018-07-08T11:41:08.513Z,20.10
2018-07-08T11:43:38.705Z,19.60
2018-07-08T11:46:08.907Z,19.90
2018-07-08T11:48:39.131Z,20.60
2018-07-08T11:51:09.358Z,21.10
2018-07-08T11:53:39.496Z,21.50
2018-07-08T11:56:09.600Z,21.50
2018-07-08T11:58:39.691Z,21.80
2018-07-08T12:01:09.968Z,21.70
2018-07-08T12:03:40.063Z,21.50
2018-07-08T12:06:10.200Z,21.00
2018-07-08T12:08:40.458Z,21.00
2018-07-08T12:11:10.658Z,22.20
2018-07-08T12:13:40.740Z,21.60
2018-07-08T12:16:10.954Z,21.70
2018-07-08T12:18:41.093Z,20.90
2018-07-08T12:21:11.398Z,21.00
2018-07-08T12:23:42.723Z,20.70
2018-07-08T12:26:13.376Z,20.70
2018-07-08T12:28:43.565Z,21.20
2018-07-08T12:31:13.691Z,21.60
2018-07-08T12:33:43.907Z,21.80
2018-07-08T12:36:14.129Z,22.20
2018-07-08T12:38:44.196Z,22.70
2018-07-08T12:41:14.303Z,23.20
2018-07-08T12:43:44.463Z,23.40
2018-07-08T12:46:14.546Z,23.60
2018-07-08T12:48:44.652Z,23.70
2018-07-08T12:51:14.874Z,23.80
2018-07-08T12:53:45.059Z,23.80
2018-07-08T12:56:15.217Z,24.00
2018-07-08T12:58:45.623Z,24.00
2018-07-08T13:01:15.797Z,23.70
2018-07-08T13:03:45.933Z,23.90
2018-07-08T13:06:16.067Z,24.40
2018-07-08T13:08:46.424Z,24.50
2018-07-08T13:11:17.226Z,24.60
2018-07-08T13:13:47.357Z,24.80
2018-07-08T13:16:17.543Z,25.10
2018-07-08T13:18:47.791Z,25.20
2018-07-08T13:21:17.916Z,25.60
2018-07-08T13:23:48.281Z,25.60
2018-07-08T13:26:18.373Z,25.80
2018-07-08T13:28:49.032Z,26.00
2018-07-08T13:31:19.242Z,26.50
2018-07-08T13:33:49.383Z,27.00
2018-07-08T13:36:19.570Z,27.50
2018-07-08T13:38:50.761Z,27.50
2018-07-08T13:41:20.787Z,27.40
2018-07-08T13:43:50.934Z,27.40
2018-07-08T13:46:21.044Z,27.50
2018-07-08T13:48:52.954Z,27.60
2018-07-08T13:51:23.107Z,27.60
2018-07-08T13:53:53.299Z,27.50
2018-07-08T13:56:23.351Z,27.60
2018-07-08T13:58:53.454Z,27.70
2018-07-08T14:01:23.568Z,27.90
2018-07-08T14:03:53.692Z,28.00
2018-07-08T14:06:24.074Z,28.00
2018-07-08T14:08:54.262Z,27.00
2018-07-08T14:11:24.433Z,24.20
2018-07-08T14:13:55.588Z,21.30
2018-07-08T14:16:25.664Z,18.90
2018-07-08T14:18:56.550Z,17.40
2018-07-08T14:21:26.734Z,16.10
2018-07-08T14:23:56.869Z,15.90
2018-07-08T14:26:27.276Z,15.40
2018-07-08T14:28:57.485Z,15.70
2018-07-08T14:31:27.658Z,16.00
2018-07-08T14:33:57.786Z,17.50
2018-07-08T14:36:28.068Z,18.90
2018-07-08T14:38:58.226Z,20.60
2018-07-08T14:41:28.516Z,22.20
2018-07-08T14:43:59.181Z,23.20
2018-07-08T14:46:29.315Z,24.00
2018-07-08T14:48:59.413Z,24.80
2018-07-08T14:51:30.146Z,25.70
2018-07-08T14:54:00.334Z,24.20
2018-07-08T14:56:30.446Z,21.90
2018-07-08T14:59:00.556Z,19.30
2018-07-08T15:01:30.671Z,17.60
2018-07-08T15:04:01.010Z,17.60
2018-07-08T15:06:31.108Z,17.60
2018-07-08T15:09:06.910Z,16.10
2018-07-08T15:11:37.217Z,15.80
2018-07-08T15:14:07.568Z,13.70
2018-07-08T15:16:37.694Z,12.90
2018-07-08T15:19:08.099Z,13.30
2018-07-08T15:21:38.349Z,13.20
2018-07-08T15:24:09.272Z,14.00
2018-07-08T15:26:39.416Z,14.10
2018-07-08T15:29:09.674Z,13.70
2018-07-08T15:31:39.784Z,12.90
2018-07-08T15:34:10.902Z,12.10
2018-07-08T15:36:41.228Z,11.40
2018-07-08T15:39:11.448Z,11.80
2018-07-08T15:41:41.740Z,11.80
2018-07-08T15:44:11.962Z,13.20
2018-07-08T15:46:42.176Z,13.30
2018-07-08T15:49:12.404Z,12.40
2018-07-08T15:51:42.586Z,12.30
2018-07-08T15:54:12.731Z,11.90
2018-07-08T15:56:42.927Z,11.60
2018-07-08T15:59:13.034Z,11.60
2018-07-08T16:01:43.165Z,11.90
2018-07-08T16:04:13.258Z,13.20
2018-07-08T16:06:43.846Z,15.60
2018-07-08T16:09:14.428Z,17.80
2018-07-08T16:11:44.625Z,19.70
2018-07-08T16:14:14.746Z,21.10
2018-07-08T16:16:44.902Z,21.60
2018-07-08T16:19:15.828Z,22.80
2018-07-08T16:21:46.066Z,22.50
2018-07-08T16:24:16.279Z,22.60
2018-07-08T16:26:46.399Z,22.90
2018-07-08T16:29:16.593Z,23.10
2018-07-08T16:31:46.944Z,23.50
2018-07-08T16:34:17.101Z,23.70
2018-07-08T16:36:47.290Z,23.90
2018-07-08T16:39:17.496Z,24.60
2018-07-08T16:41:47.651Z,25.00
2018-07-08T16:44:17.748Z,25.20
2018-07-08T16:46:49.184Z,25.10
2018-07-08T16:49:19.351Z,25.10
2018-07-08T16:51:49.611Z,25.30
2018-07-08T16:54:19.895Z,25.50
2018-07-08T16:56:50.439Z,25.70
2018-07-08T16:59:21.001Z,25.70
2018-07-08T17:01:51.119Z,25.60
2018-07-08T17:04:21.343Z,25.50
2018-07-08T17:06:51.518Z,25.80
2018-07-08T17:09:21.714Z,25.90
2018-07-08T17:11:52.877Z,25.90
2018-07-08T17:14:23.045Z,26.10
2018-07-08T17:16:53.398Z,26.50
2018-07-08T17:19:24.329Z,26.70
2018-07-08T17:21:55.652Z,26.90
2018-07-08T17:24:26.069Z,27.80
2018-07-08T17:26:56.701Z,27.10
2018-07-08T17:29:28.021Z,27.40
2018-07-08T17:31:58.318Z,27.50
2018-07-08T17:34:28.723Z,27.50
2018-07-08T17:36:58.899Z,27.50
2018-07-08T17:39:29.030Z,27.60
2018-07-08T17:41:59.761Z,27.80
2018-07-08T17:44:30.289Z,28.00
2018-07-08T17:47:01.243Z,28.20
2018-07-08T17:49:32.117Z,28.50
2018-07-08T17:52:05.004Z,29.10
2018-07-08T17:54:35.394Z,29.20
2018-07-08T17:57:08.066Z,29.40
2018-07-08T17:59:38.318Z,29.40
2018-07-08T18:02:08.782Z,29.50
2018-07-08T18:04:39.987Z,29.70
2018-07-08T18:07:10.128Z,30.20
2018-07-08T18:09:40.342Z,31.20
2018-07-08T18:12:10.447Z,31.30
2018-07-08T18:14:40.536Z,32.30
2018-07-08T18:17:10.678Z,34.00
2018-07-08T18:19:41.850Z,33.80
2018-07-08T18:22:12.044Z,34.30
2018-07-08T18:24:42.366Z,35.00
2018-07-08T18:27:13.556Z,35.10
2018-07-08T18:29:44.108Z,35.40
2018-07-08T18:32:14.596Z,35.90
2018-07-08T18:34:44.788Z,36.10
2018-07-08T18:37:14.930Z,36.30
2018-07-08T18:39:45.882Z,37.10
2018-07-08T18:42:16.144Z,37.40
2018-07-08T18:44:46.386Z,37.70
2018-07-08T18:47:16.531Z,38.00
2018-07-08T18:49:47.442Z,38.00
2018-07-08T18:52:17.539Z,38.10
2018-07-08T18:54:47.830Z,38.20
2018-07-08T18:57:17.999Z,38.40
2018-07-08T18:59:48.114Z,38.60
2018-07-08T19:02:18.269Z,38.70
2018-07-08T19:04:48.544Z,39.00
2018-07-08T19:09:49.521Z,39.50
2018-07-08T19:12:19.660Z,39.70
2018-07-08T19:14:49.846Z,39.80
2018-07-08T19:17:19.949Z,40.10
2018-07-08T19:19:50.066Z,40.30
2018-07-08T19:22:20.298Z,40.60
2018-07-08T19:24:50.854Z,40.60
2018-07-08T19:27:21.563Z,40.80
2018-07-08T19:29:51.712Z,41.20
2018-07-08T19:32:21.996Z,41.30
2018-07-08T19:34:52.149Z,41.50
2018-07-08T19:37:22.820Z,41.70
2018-07-08T19:39:53.050Z,41.80
2018-07-08T19:42:23.205Z,42.00
2018-07-08T19:44:54.399Z,42.30
2018-07-08T19:47:24.532Z,42.40
2018-07-08T19:49:54.762Z,42.50
2018-07-08T19:52:25.861Z,42.60
2018-07-08T19:54:56.406Z,42.80
2018-07-08T19:57:26.602Z,42.90
2018-07-08T19:59:56.785Z,43.20
2018-07-08T20:02:27.179Z,43.80
2018-07-08T20:04:58.421Z,43.80
2018-07-08T20:07:28.601Z,43.80
2018-07-08T20:09:58.815Z,43.90
2018-07-08T20:12:28.948Z,44.20
2018-07-08T20:15:01.154Z,44.50
2018-07-08T20:17:32.529Z,44.70
2018-07-08T20:20:02.760Z,45.00
2018-07-08T20:22:33.855Z,45.40
2018-07-08T20:25:04.324Z,45.30
2018-07-08T20:27:34.531Z,45.50
2018-07-08T20:30:05.411Z,45.20
2018-07-08T20:32:35.960Z,45.30
2018-07-08T20:35:08.111Z,45.10
2018-07-08T20:37:38.234Z,45.10
2018-07-08T20:40:11.791Z,45.40
2018-07-08T20:42:43.278Z,45.70
2018-07-08T20:45:13.495Z,45.70
2018-07-08T20:47:43.625Z,45.70
2018-07-08T20:50:13.708Z,45.70
2018-07-08T20:53:08.722Z,45.50
2018-07-08T20:55:38.853Z,45.80
2018-07-08T20:58:09.057Z,46.10
2018-07-08T21:00:39.757Z,46.20
2018-07-08T21:03:11.417Z,46.90
2018-07-08T21:05:43.339Z,46.60
2018-07-08T21:08:13.569Z,46.80
2018-07-08T21:10:43.878Z,47.00
2018-07-08T21:13:14.330Z,47.30
2018-07-08T21:15:44.735Z,47.40
2018-07-08T21:18:14.918Z,47.40
2018-07-08T21:20:47.229Z,47.80
2018-07-08T21:23:24.069Z,47.70
2018-07-08T21:25:54.260Z,47.90
2018-07-08T21:28:24.361Z,48.00
2018-07-08T21:30:54.525Z,48.10
2018-07-08T21:33:24.743Z,48.10
2018-07-08T21:35:54.859Z,48.20
2018-07-08T21:38:25.021Z,48.50
2018-07-08T21:40:55.157Z,48.70
2018-07-08T21:43:26.135Z,48.70
2018-07-08T21:45:56.382Z,48.80
2018-07-08T21:48:26.535Z,49.00
2018-07-08T21:50:56.758Z,49.20
2018-07-08T21:53:27.185Z,49.20
2018-07-08T21:55:57.404Z,49.30
2018-07-08T21:58:27.593Z,49.70
2018-07-08T22:01:19.341Z,49.80
2018-07-08T22:03:50.237Z,49.70
2018-07-08T22:06:21.610Z,49.70
2018-07-08T22:08:51.861Z,49.80
2018-07-08T22:11:22.114Z,50.00
2018-07-08T22:13:52.843Z,49.90
2018-07-08T22:16:23.803Z,50.20
2018-07-08T22:18:54.017Z,50.30
2018-07-08T22:21:24.152Z,50.50
2018-07-08T22:23:55.117Z,50.60
2018-07-08T22:26:25.320Z,50.70
2018-07-08T22:28:55.389Z,50.70
2018-07-08T22:31:25.482Z,50.70
2018-07-08T22:33:55.626Z,50.90
2018-07-08T22:36:25.804Z,51.00
2018-07-08T22:38:56.024Z,50.90
2018-07-08T22:41:26.180Z,50.80
2018-07-08T22:43:56.464Z,50.90
2018-07-08T22:46:26.601Z,51.20
2018-07-08T22:48:56.790Z,51.10
2018-07-08T22:51:26.947Z,51.30
2018-07-08T22:53:57.771Z,51.50
2018-07-08T22:56:27.982Z,51.60
2018-07-08T22:58:58.105Z,51.70
2018-07-08T23:01:45.311Z,51.70
2018-07-08T23:04:15.394Z,52.00
2018-07-08T23:06:46.135Z,52.00
2018-07-08T23:09:16.345Z,52.20
2018-07-08T23:11:46.541Z,52.30
2018-07-08T23:14:16.691Z,52.30
2018-07-08T23:16:46.815Z,52.50
2018-07-08T23:19:16.925Z,52.70
2018-07-08T23:21:47.044Z,52.70
2018-07-08T23:24:17.291Z,52.90
2018-07-08T23:26:47.819Z,53.10
2018-07-08T23:29:18.002Z,53.50
2018-07-08T23:31:48.199Z,53.60
2018-07-08T23:34:18.265Z,53.80
2018-07-08T23:39:18.253Z,54.00
2018-07-08T23:41:48.376Z,54.00
2018-07-08T23:44:18.865Z,54.10
2018-07-08T23:46:48.962Z,54.20
2018-07-08T23:49:19.083Z,54.30
2018-07-08T23:51:49.287Z,54.60
2018-07-08T23:54:19.981Z,54.80
2018-07-08T23:56:50.226Z,54.90
2018-07-08T23:59:20.393Z,54.90
